sensor_id;sensor_type;location;lat;lon;timestamp;pressure;altitude;pressure_sealevel;temperature;humidity
70229;BME280;57617;51.988;5.854;2023-08-24T00:00:28;101358.56;;;23.06;56.69
70229;BME280;57617;51.988;5.854;2023-08-24T00:02:53;101347.00;;;23.04;56.56
70229;BME280;57617;51.988;5.854;2023-08-24T00:05:19;101348.94;;;23.04;56.53
70229;BME280;57617;51.988;5.854;2023-08-24T00:07:46;101344.41;;;23.08;56.48
70229;BME280;57617;51.988;5.854;2023-08-24T00:10:13;101341.44;;;23.04;56.46
70229;BME280;57617;51.988;5.854;2023-08-24T00:12:38;101352.41;;;23.09;56.42
70229;BME280;57617;51.988;5.854;2023-08-24T00:15:07;101355.38;;;23.13;56.54
70229;BME280;57617;51.988;5.854;2023-08-24T00:17:33;101344.91;;;23.10;56.77
70229;BME280;57617;51.988;5.854;2023-08-24T00:19:59;101351.59;;;23.09;56.78
70229;BME280;57617;51.988;5.854;2023-08-24T00:22:24;101349.63;;;23.09;56.61
70229;BME280;57617;51.988;5.854;2023-08-24T00:24:50;101354.56;;;23.12;56.83
70229;BME280;57617;51.988;5.854;2023-08-24T00:27:15;101347.38;;;23.11;56.77
70229;BME280;57617;51.988;5.854;2023-08-24T00:29:40;101350.56;;;23.18;56.73
70229;BME280;57617;51.988;5.854;2023-08-24T00:32:05;101338.13;;;23.16;56.74
70229;BME280;57617;51.988;5.854;2023-08-24T00:34:31;101325.50;;;23.10;56.74
70229;BME280;57617;51.988;5.854;2023-08-24T00:36:56;101319.78;;;23.06;56.89
70229;BME280;57617;51.988;5.854;2023-08-24T00:39:22;101315.69;;;23.04;57.03
70229;BME280;57617;51.988;5.854;2023-08-24T00:41:47;101328.69;;;23.03;56.61
70229;BME280;57617;51.988;5.854;2023-08-24T00:44:12;101336.00;;;22.99;57.13
70229;BME280;57617;51.988;5.854;2023-08-24T00:46:37;101337.97;;;22.99;56.83
70229;BME280;57617;51.988;5.854;2023-08-24T00:49:03;101349.44;;;22.92;57.06
70229;BME280;57617;51.988;5.854;2023-08-24T00:51:28;101350.88;;;22.90;57.29
70229;BME280;57617;51.988;5.854;2023-08-24T00:53:54;101337.03;;;22.90;57.49
70229;BME280;57617;51.988;5.854;2023-08-24T00:56:19;101338.38;;;22.92;57.71
70229;BME280;57617;51.988;5.854;2023-08-24T00:58:50;101334.69;;;22.97;57.36
70229;BME280;57617;51.988;5.854;2023-08-24T01:01:17;101329.94;;;22.97;57.42
70229;BME280;57617;51.988;5.854;2023-08-24T01:03:42;101328.19;;;23.01;57.72
70229;BME280;57617;51.988;5.854;2023-08-24T01:06:07;101326.75;;;23.04;57.46
70229;BME280;57617;51.988;5.854;2023-08-24T01:08:33;101317.00;;;23.06;57.40
70229;BME280;57617;51.988;5.854;2023-08-24T01:11:27;101317.38;;;23.13;58.38
70229;BME280;57617;51.988;5.854;2023-08-24T01:16:44;101329.50;;;23.17;57.54
70229;BME280;57617;51.988;5.854;2023-08-24T01:19:57;101321.72;;;23.19;58.00
70229;BME280;57617;51.988;5.854;2023-08-24T01:22:09;101331.34;;;23.22;57.96
70229;BME280;57617;51.988;5.854;2023-08-24T01:24:44;101318.31;;;23.22;58.16
70229;BME280;57617;51.988;5.854;2023-08-24T01:27:12;101333.03;;;23.23;57.92
70229;BME280;57617;51.988;5.854;2023-08-24T01:29:38;101324.19;;;23.21;57.82
70229;BME280;57617;51.988;5.854;2023-08-24T01:32:09;101320.25;;;23.22;57.98
70229;BME280;57617;51.988;5.854;2023-08-24T01:34:37;101318.63;;;23.21;57.79
70229;BME280;57617;51.988;5.854;2023-08-24T01:37:02;101322.53;;;23.20;58.17
70229;BME280;57617;51.988;5.854;2023-08-24T01:39:31;101309.00;;;23.18;57.92
70229;BME280;57617;51.988;5.854;2023-08-24T01:42:02;101302.09;;;23.16;58.31
70229;BME280;57617;51.988;5.854;2023-08-24T01:44:35;101306.63;;;23.25;58.11
70229;BME280;57617;51.988;5.854;2023-08-24T01:47:02;101311.22;;;23.30;58.09
70229;BME280;57617;51.988;5.854;2023-08-24T01:49:29;101311.03;;;23.26;58.11
70229;BME280;57617;51.988;5.854;2023-08-24T01:51:55;101321.28;;;23.26;57.90
70229;BME280;57617;51.988;5.854;2023-08-24T01:54:21;101312.97;;;23.26;58.30
70229;BME280;57617;51.988;5.854;2023-08-24T01:56:47;101314.41;;;23.23;58.32
70229;BME280;57617;51.988;5.854;2023-08-24T01:59:12;101310.31;;;23.21;58.50
70229;BME280;57617;51.988;5.854;2023-08-24T02:01:37;101306.75;;;23.20;58.61
70229;BME280;57617;51.988;5.854;2023-08-24T02:04:03;101305.91;;;23.20;58.60
70229;BME280;57617;51.988;5.854;2023-08-24T02:06:28;101307.13;;;23.14;58.31
70229;BME280;57617;51.988;5.854;2023-08-24T02:08:54;101319.78;;;23.20;58.78
70229;BME280;57617;51.988;5.854;2023-08-24T02:11:19;101324.19;;;23.21;58.60
70229;BME280;57617;51.988;5.854;2023-08-24T02:13:44;101323.56;;;23.24;58.47
70229;BME280;57617;51.988;5.854;2023-08-24T02:16:10;101339.56;;;23.27;58.72
70229;BME280;57617;51.988;5.854;2023-08-24T02:18:36;101340.38;;;23.27;58.19
70229;BME280;57617;51.988;5.854;2023-08-24T02:21:07;101343.47;;;23.26;58.64
70229;BME280;57617;51.988;5.854;2023-08-24T02:23:33;101323.25;;;23.25;58.53
70229;BME280;57617;51.988;5.854;2023-08-24T02:25:58;101316.56;;;23.26;58.60
70229;BME280;57617;51.988;5.854;2023-08-24T02:28:24;101309.28;;;23.30;58.41
70229;BME280;57617;51.988;5.854;2023-08-24T02:30:49;101307.94;;;23.28;58.49
70229;BME280;57617;51.988;5.854;2023-08-24T02:33:14;101303.22;;;23.28;58.86
70229;BME280;57617;51.988;5.854;2023-08-24T02:35:40;101308.75;;;23.28;58.84
70229;BME280;57617;51.988;5.854;2023-08-24T02:38:05;101307.13;;;23.27;58.88
70229;BME280;57617;51.988;5.854;2023-08-24T02:40:30;101312.06;;;23.30;58.47
70229;BME280;57617;51.988;5.854;2023-08-24T02:42:55;101284.97;;;23.14;58.77
70229;BME280;57617;51.988;5.854;2023-08-24T02:45:21;101314.59;;;23.27;58.99
70229;BME280;57617;51.988;5.854;2023-08-24T02:47:46;101300.56;;;23.23;58.79
70229;BME280;57617;51.988;5.854;2023-08-24T02:50:11;101282.09;;;23.19;59.39
70229;BME280;57617;51.988;5.854;2023-08-24T02:52:37;101273.22;;;23.17;59.41
70229;BME280;57617;51.988;5.854;2023-08-24T02:55:03;101258.50;;;23.08;59.63
70229;BME280;57617;51.988;5.854;2023-08-24T02:57:28;101278.88;;;23.12;59.50
70229;BME280;57617;51.988;5.854;2023-08-24T02:59:54;101290.31;;;23.10;59.55
70229;BME280;57617;51.988;5.854;2023-08-24T03:02:19;101298.41;;;23.07;60.10
70229;BME280;57617;51.988;5.854;2023-08-24T03:04:44;101270.00;;;23.01;60.21
70229;BME280;57617;51.988;5.854;2023-08-24T03:07:10;101250.09;;;22.99;60.32
70229;BME280;57617;51.988;5.854;2023-08-24T03:09:35;101242.59;;;23.00;60.37
70229;BME280;57617;51.988;5.854;2023-08-24T03:12:01;101217.28;;;22.93;60.40
70229;BME280;57617;51.988;5.854;2023-08-24T03:14:26;101228.44;;;23.01;60.71
70229;BME280;57617;51.988;5.854;2023-08-24T03:16:51;101233.97;;;23.01;60.20
70229;BME280;57617;51.988;5.854;2023-08-24T03:19:17;101226.81;;;23.00;60.53
70229;BME280;57617;51.988;5.854;2023-08-24T03:21:43;101229.03;;;22.98;60.68
70229;BME280;57617;51.988;5.854;2023-08-24T03:24:09;101222.00;;;22.92;60.63
70229;BME280;57617;51.988;5.854;2023-08-24T03:26:34;101222.28;;;22.91;60.81
70229;BME280;57617;51.988;5.854;2023-08-24T03:28:59;101213.19;;;22.90;60.96
70229;BME280;57617;51.988;5.854;2023-08-24T03:31:25;101209.28;;;22.91;61.54
70229;BME280;57617;51.988;5.854;2023-08-24T03:33:51;101199.50;;;22.94;61.04
70229;BME280;57617;51.988;5.854;2023-08-24T03:36:16;101195.59;;;22.95;61.28
70229;BME280;57617;51.988;5.854;2023-08-24T03:38:42;101199.22;;;22.95;61.28
70229;BME280;57617;51.988;5.854;2023-08-24T03:41:07;101201.16;;;22.95;61.01
70229;BME280;57617;51.988;5.854;2023-08-24T03:43:33;101193.97;;;22.94;61.12
70229;BME280;57617;51.988;5.854;2023-08-24T03:46:00;101180.13;;;22.94;61.04
70229;BME280;57617;51.988;5.854;2023-08-24T03:48:26;101189.88;;;22.91;61.06
70229;BME280;57617;51.988;5.854;2023-08-24T03:50:54;101186.63;;;22.89;61.21
70229;BME280;57617;51.988;5.854;2023-08-24T03:53:20;101186.91;;;22.88;60.92
70229;BME280;57617;51.988;5.854;2023-08-24T03:55:49;101183.63;;;22.86;61.33
70229;BME280;57617;51.988;5.854;2023-08-24T03:58:15;101191.13;;;22.85;61.06
70229;BME280;57617;51.988;5.854;2023-08-24T04:00:40;101185.91;;;22.84;61.06
70229;BME280;57617;51.988;5.854;2023-08-24T04:03:07;101175.00;;;22.87;61.18
70229;BME280;57617;51.988;5.854;2023-08-24T04:05:32;101175.84;;;22.88;60.83
70229;BME280;57617;51.988;5.854;2023-08-24T04:07:57;101180.53;;;22.87;60.94
70229;BME280;57617;51.988;5.854;2023-08-24T04:10:23;101178.72;;;22.83;60.79
70229;BME280;57617;51.988;5.854;2023-08-24T04:12:49;101171.03;;;22.80;61.27
70229;BME280;57617;51.988;5.854;2023-08-24T04:15:14;101171.34;;;22.78;60.92
70229;BME280;57617;51.988;5.854;2023-08-24T04:17:39;101160.25;;;22.78;61.45
70229;BME280;57617;51.988;5.854;2023-08-24T04:20:05;101167.13;;;22.81;60.94
70229;BME280;57617;51.988;5.854;2023-08-24T04:22:32;101165.78;;;22.78;61.12
70229;BME280;57617;51.988;5.854;2023-08-24T04:24:57;101163.34;;;22.77;60.97
70229;BME280;57617;51.988;5.854;2023-08-24T04:27:22;101162.53;;;22.76;61.09
70229;BME280;57617;51.988;5.854;2023-08-24T04:29:48;101155.34;;;22.75;61.20
70229;BME280;57617;51.988;5.854;2023-08-24T04:32:14;101162.03;;;22.74;61.27
70229;BME280;57617;51.988;5.854;2023-08-24T04:34:39;101156.16;;;22.76;61.06
70229;BME280;57617;51.988;5.854;2023-08-24T04:37:05;101154.81;;;22.73;61.14
70229;BME280;57617;51.988;5.854;2023-08-24T04:39:32;101163.97;;;22.74;61.42
70229;BME280;57617;51.988;5.854;2023-08-24T04:41:57;101174.22;;;22.73;61.18
70229;BME280;57617;51.988;5.854;2023-08-24T04:44:23;101161.81;;;22.71;60.94
70229;BME280;57617;51.988;5.854;2023-08-24T04:46:49;101171.78;;;22.72;61.13
70229;BME280;57617;51.988;5.854;2023-08-24T04:49:14;101166.56;;;22.70;61.26
70229;BME280;57617;51.988;5.854;2023-08-24T04:51:40;101157.84;;;22.63;61.08
70229;BME280;57617;51.988;5.854;2023-08-24T04:54:05;101155.00;;;22.55;61.45
70229;BME280;57617;51.988;5.854;2023-08-24T04:56:30;101165.06;;;22.51;61.53
70229;BME280;57617;51.988;5.854;2023-08-24T04:58:56;101153.28;;;22.45;61.75
70229;BME280;57617;51.988;5.854;2023-08-24T05:01:23;101163.81;;;22.43;61.82
70229;BME280;57617;51.988;5.854;2023-08-24T05:03:50;101155.81;;;22.42;62.04
70229;BME280;57617;51.988;5.854;2023-08-24T05:06:16;101153.06;;;22.42;62.01
70229;BME280;57617;51.988;5.854;2023-08-24T05:08:41;101163.94;;;22.38;62.03
70229;BME280;57617;51.988;5.854;2023-08-24T05:11:22;101163.41;;;22.36;62.71
70229;BME280;57617;51.988;5.854;2023-08-24T05:13:47;101162.09;;;22.34;62.12
70229;BME280;57617;51.988;5.854;2023-08-24T05:16:13;101160.44;;;22.33;61.99
70229;BME280;57617;51.988;5.854;2023-08-24T05:18:39;101155.41;;;22.35;62.19
70229;BME280;57617;51.988;5.854;2023-08-24T05:21:05;101161.16;;;22.38;62.10
70229;BME280;57617;51.988;5.854;2023-08-24T05:23:32;101159.41;;;22.42;62.04
70229;BME280;57617;51.988;5.854;2023-08-24T05:25:58;101155.75;;;22.47;61.94
70229;BME280;57617;51.988;5.854;2023-08-24T05:28:28;101156.44;;;22.52;62.02
70229;BME280;57617;51.988;5.854;2023-08-24T05:30:54;101162.81;;;22.53;62.00
70229;BME280;57617;51.988;5.854;2023-08-24T05:33:20;101162.81;;;22.53;62.18
70229;BME280;57617;51.988;5.854;2023-08-24T05:35:46;101173.56;;;22.54;62.01
70229;BME280;57617;51.988;5.854;2023-08-24T05:38:13;101175.00;;;22.52;62.25
70229;BME280;57617;51.988;5.854;2023-08-24T05:40:38;101179.13;;;22.54;62.05
70229;BME280;57617;51.988;5.854;2023-08-24T05:43:04;101169.38;;;22.57;62.11
70229;BME280;57617;51.988;5.854;2023-08-24T05:45:29;101164.63;;;22.57;61.97
70229;BME280;57617;51.988;5.854;2023-08-24T05:47:55;101157.97;;;22.58;62.30
70229;BME280;57617;51.988;5.854;2023-08-24T05:50:20;101158.78;;;22.59;62.31
70229;BME280;57617;51.988;5.854;2023-08-24T05:52:45;101148.66;;;22.54;62.20
70229;BME280;57617;51.988;5.854;2023-08-24T05:55:11;101156.53;;;22.61;62.58
70229;BME280;57617;51.988;5.854;2023-08-24T05:57:36;101155.41;;;22.62;62.26
70229;BME280;57617;51.988;5.854;2023-08-24T06:00:02;101159.16;;;22.66;62.33
70229;BME280;57617;51.988;5.854;2023-08-24T06:02:28;101145.84;;;22.68;62.31
70229;BME280;57617;51.988;5.854;2023-08-24T06:04:54;101143.25;;;22.71;62.62
70229;BME280;57617;51.988;5.854;2023-08-24T06:07:19;101134.81;;;22.76;62.52
70229;BME280;57617;51.988;5.854;2023-08-24T06:09:46;101130.31;;;22.80;62.39
70229;BME280;57617;51.988;5.854;2023-08-24T06:12:12;101127.22;;;22.82;62.26
70229;BME280;57617;51.988;5.854;2023-08-24T06:14:37;101123.19;;;22.88;62.23
70229;BME280;57617;51.988;5.854;2023-08-24T06:17:02;101111.47;;;22.91;62.16
70229;BME280;57617;51.988;5.854;2023-08-24T06:19:28;101103.38;;;22.94;62.23
70229;BME280;57617;51.988;5.854;2023-08-24T06:21:53;101105.78;;;22.96;62.23
70229;BME280;57617;51.988;5.854;2023-08-24T06:24:19;101099.63;;;22.99;61.88
70229;BME280;57617;51.988;5.854;2023-08-24T06:26:44;101090.00;;;22.96;61.95
70229;BME280;57617;51.988;5.854;2023-08-24T06:29:10;101081.06;;;22.99;62.18
70229;BME280;57617;51.988;5.854;2023-08-24T06:31:35;101095.09;;;23.03;62.55
70229;BME280;57617;51.988;5.854;2023-08-24T06:34:00;101088.59;;;23.07;62.14
70229;BME280;57617;51.988;5.854;2023-08-24T06:36:26;101083.22;;;23.11;61.93
70229;BME280;57617;51.988;5.854;2023-08-24T06:38:51;101084.56;;;23.13;61.92
70229;BME280;57617;51.988;5.854;2023-08-24T06:41:16;101081.16;;;23.16;61.90
70229;BME280;57617;51.988;5.854;2023-08-24T06:43:42;101076.75;;;23.15;61.79
70229;BME280;57617;51.988;5.854;2023-08-24T06:46:07;101092.94;;;23.22;62.02
70229;BME280;57617;51.988;5.854;2023-08-24T06:48:36;101097.38;;;23.23;62.17
70229;BME280;57617;51.988;5.854;2023-08-24T06:51:02;101100.03;;;23.28;61.86
70229;BME280;57617;51.988;5.854;2023-08-24T06:53:28;101094.97;;;23.30;61.90
70229;BME280;57617;51.988;5.854;2023-08-24T06:55:55;101085.69;;;23.34;62.13
70229;BME280;57617;51.988;5.854;2023-08-24T06:58:20;101084.22;;;23.37;61.80
70229;BME280;57617;51.988;5.854;2023-08-24T07:00:46;101077.44;;;23.43;61.94
70229;BME280;57617;51.988;5.854;2023-08-24T07:03:11;101078.75;;;23.45;62.24
70229;BME280;57617;51.988;5.854;2023-08-24T07:05:36;101082.81;;;23.48;61.56
70229;BME280;57617;51.988;5.854;2023-08-24T07:08:02;101078.25;;;23.52;61.78
70229;BME280;57617;51.988;5.854;2023-08-24T07:10:28;101080.88;;;23.57;61.16
70229;BME280;57617;51.988;5.854;2023-08-24T07:12:53;101081.56;;;23.62;61.41
70229;BME280;57617;51.988;5.854;2023-08-24T07:15:19;101069.50;;;23.67;61.40
70229;BME280;57617;51.988;5.854;2023-08-24T07:17:44;101052.22;;;23.70;60.81
70229;BME280;57617;51.988;5.854;2023-08-24T07:20:09;101055.16;;;23.73;60.68
70229;BME280;57617;51.988;5.854;2023-08-24T07:22:36;101046.69;;;23.78;60.51
70229;BME280;57617;51.988;5.854;2023-08-24T07:25:02;101052.09;;;23.83;60.99
70229;BME280;57617;51.988;5.854;2023-08-24T07:27:31;101065.00;;;23.88;60.52
70229;BME280;57617;51.988;5.854;2023-08-24T07:29:57;101057.69;;;23.92;60.29
70229;BME280;57617;51.988;5.854;2023-08-24T07:32:22;101061.94;;;23.98;59.93
70229;BME280;57617;51.988;5.854;2023-08-24T07:34:49;101061.47;;;24.04;59.91
70229;BME280;57617;51.988;5.854;2023-08-24T07:37:14;101057.72;;;24.09;59.90
70229;BME280;57617;51.988;5.854;2023-08-24T07:39:39;101055.31;;;24.16;59.83
70229;BME280;57617;51.988;5.854;2023-08-24T07:42:05;101045.66;;;24.13;59.83
70229;BME280;57617;51.988;5.854;2023-08-24T07:44:30;101055.16;;;24.21;59.80
70229;BME280;57617;51.988;5.854;2023-08-24T07:46:55;101054.00;;;24.22;59.70
70229;BME280;57617;51.988;5.854;2023-08-24T07:49:21;101061.84;;;24.28;59.31
70229;BME280;57617;51.988;5.854;2023-08-24T07:51:46;101058.09;;;24.33;59.02
70229;BME280;57617;51.988;5.854;2023-08-24T07:54:12;101052.53;;;24.33;59.04
70229;BME280;57617;51.988;5.854;2023-08-24T07:56:38;101052.53;;;24.41;58.97
70229;BME280;57617;51.988;5.854;2023-08-24T07:59:03;101058.25;;;24.45;58.58
70229;BME280;57617;51.988;5.854;2023-08-24T08:01:28;101051.06;;;24.52;58.51
70229;BME280;57617;51.988;5.854;2023-08-24T08:03:53;101049.44;;;24.60;58.84
70229;BME280;57617;51.988;5.854;2023-08-24T08:06:19;101058.13;;;24.67;58.48
70229;BME280;57617;51.988;5.854;2023-08-24T08:08:47;101054.03;;;24.73;58.54
70229;BME280;57617;51.988;5.854;2023-08-24T08:11:12;101060.72;;;24.80;58.09
70229;BME280;57617;51.988;5.854;2023-08-24T08:13:37;101063.47;;;24.89;58.45
70229;BME280;57617;51.988;5.854;2023-08-24T08:16:06;101070.50;;;24.95;57.85
70229;BME280;57617;51.988;5.854;2023-08-24T08:18:32;101059.06;;;24.96;57.98
70229;BME280;57617;51.988;5.854;2023-08-24T08:20:58;101059.53;;;25.07;57.53
70229;BME280;57617;51.988;5.854;2023-08-24T08:23:23;101058.66;;;25.15;57.32
70229;BME280;57617;51.988;5.854;2023-08-24T08:25:49;101057.66;;;25.19;56.62
70229;BME280;57617;51.988;5.854;2023-08-24T08:28:14;101051.13;;;25.24;56.84
70229;BME280;57617;51.988;5.854;2023-08-24T08:30:39;101063.88;;;25.33;56.96
70229;BME280;57617;51.988;5.854;2023-08-24T08:33:05;101060.91;;;25.38;56.71
70229;BME280;57617;51.988;5.854;2023-08-24T08:35:30;101065.97;;;25.45;56.64
70229;BME280;57617;51.988;5.854;2023-08-24T08:37:55;101060.53;;;25.48;56.85
70229;BME280;57617;51.988;5.854;2023-08-24T08:40:21;101057.44;;;25.50;56.44
70229;BME280;57617;51.988;5.854;2023-08-24T08:42:46;101052.84;;;25.54;56.62
70229;BME280;57617;51.988;5.854;2023-08-24T08:45:12;101041.03;;;25.57;56.53
70229;BME280;57617;51.988;5.854;2023-08-24T08:47:38;101040.03;;;25.61;56.76
70229;BME280;57617;51.988;5.854;2023-08-24T08:50:04;101035.09;;;25.67;56.63
70229;BME280;57617;51.988;5.854;2023-08-24T08:52:31;101023.28;;;25.70;56.66
70229;BME280;57617;51.988;5.854;2023-08-24T08:54:56;101022.28;;;25.74;56.83
70229;BME280;57617;51.988;5.854;2023-08-24T08:57:23;101019.78;;;25.81;56.46
70229;BME280;57617;51.988;5.854;2023-08-24T08:59:51;101007.97;;;25.84;56.63
70229;BME280;57617;51.988;5.854;2023-08-24T09:02:19;100993.53;;;25.91;56.71
70229;BME280;57617;51.988;5.854;2023-08-24T09:04:45;100990.91;;;25.94;57.24
70229;BME280;57617;51.988;5.854;2023-08-24T09:07:13;100971.06;;;25.96;56.97
70229;BME280;57617;51.988;5.854;2023-08-24T09:09:38;100976.25;;;26.06;56.74
70229;BME280;57617;51.988;5.854;2023-08-24T09:12:05;100968.16;;;26.13;56.71
70229;BME280;57617;51.988;5.854;2023-08-24T09:14:31;100966.94;;;26.22;56.35
70229;BME280;57617;51.988;5.854;2023-08-24T09:16:57;100967.66;;;26.31;56.11
70229;BME280;57617;51.988;5.854;2023-08-24T09:19:30;100949.94;;;26.36;55.64
70229;BME280;57617;51.988;5.854;2023-08-24T09:22:01;100944.94;;;26.41;55.51
70229;BME280;57617;51.988;5.854;2023-08-24T09:24:31;100946.34;;;26.47;55.86
70229;BME280;57617;51.988;5.854;2023-08-24T09:26:57;100932.84;;;26.58;55.72
70229;BME280;57617;51.988;5.854;2023-08-24T09:29:22;100929.28;;;26.69;55.79
70229;BME280;57617;51.988;5.854;2023-08-24T09:31:50;100921.97;;;26.77;55.94
70229;BME280;57617;51.988;5.854;2023-08-24T09:34:19;100921.41;;;26.83;55.73
70229;BME280;57617;51.988;5.854;2023-08-24T09:36:45;100912.22;;;26.95;55.57
70229;BME280;57617;51.988;5.854;2023-08-24T09:39:10;100901.56;;;27.09;55.61
70229;BME280;57617;51.988;5.854;2023-08-24T09:41:46;100899.16;;;27.19;55.69
70229;BME280;57617;51.988;5.854;2023-08-24T09:44:12;100906.00;;;27.34;55.28
70229;BME280;57617;51.988;5.854;2023-08-24T09:46:39;100901.22;;;27.46;55.00
70229;BME280;57617;51.988;5.854;2023-08-24T09:49:05;100907.00;;;27.53;55.10
70229;BME280;57617;51.988;5.854;2023-08-24T09:51:31;100902.34;;;27.57;54.51
70229;BME280;57617;51.988;5.854;2023-08-24T09:53:58;100905.34;;;27.64;54.19
70229;BME280;57617;51.988;5.854;2023-08-24T09:56:28;100902.91;;;27.75;54.48
70229;BME280;57617;51.988;5.854;2023-08-24T09:58:55;100908.28;;;27.80;54.13
70229;BME280;57617;51.988;5.854;2023-08-24T10:01:23;100918.72;;;27.83;54.28
70229;BME280;57617;51.988;5.854;2023-08-24T10:03:51;100921.16;;;27.84;53.83
70229;BME280;57617;51.988;5.854;2023-08-24T10:06:21;100934.34;;;27.84;54.07
70229;BME280;57617;51.988;5.854;2023-08-24T10:08:54;100940.59;;;27.81;53.74
70229;BME280;57617;51.988;5.854;2023-08-24T10:11:22;100937.69;;;27.77;53.93
70229;BME280;57617;51.988;5.854;2023-08-24T10:14:01;100940.38;;;27.74;53.63
70229;BME280;57617;51.988;5.854;2023-08-24T10:16:33;100945.38;;;27.68;54.42
70229;BME280;57617;51.988;5.854;2023-08-24T10:19:02;100941.19;;;27.62;54.19
70229;BME280;57617;51.988;5.854;2023-08-24T10:21:28;100941.53;;;27.61;54.33
70229;BME280;57617;51.988;5.854;2023-08-24T10:23:56;100945.75;;;27.55;54.80
70229;BME280;57617;51.988;5.854;2023-08-24T10:26:22;100930.06;;;27.50;54.76
70229;BME280;57617;51.988;5.854;2023-08-24T10:28:49;100926.22;;;27.43;55.13
70229;BME280;57617;51.988;5.854;2023-08-24T10:31:15;100884.97;;;27.24;55.13
70229;BME280;57617;51.988;5.854;2023-08-24T10:33:41;100910.16;;;27.40;55.19
70229;BME280;57617;51.988;5.854;2023-08-24T10:36:09;100908.66;;;27.42;55.14
70229;BME280;57617;51.988;5.854;2023-08-24T10:38:39;100897.38;;;27.39;55.33
70229;BME280;57617;51.988;5.854;2023-08-24T10:41:06;100896.00;;;27.33;55.28
70229;BME280;57617;51.988;5.854;2023-08-24T10:43:38;100897.75;;;27.25;55.40
70229;BME280;57617;51.988;5.854;2023-08-24T10:46:11;100902.84;;;27.23;55.02
70229;BME280;57617;51.988;5.854;2023-08-24T10:53:50;100887.25;;;27.10;54.38
70229;BME280;57617;51.988;5.854;2023-08-24T10:56:17;100889.56;;;27.08;54.66
70229;BME280;57617;51.988;5.854;2023-08-24T10:58:44;100889.13;;;27.06;54.61
70229;BME280;57617;51.988;5.854;2023-08-24T11:01:17;100890.28;;;27.05;54.71
70229;BME280;57617;51.988;5.854;2023-08-24T11:03:51;100893.41;;;27.04;54.71
70229;BME280;57617;51.988;5.854;2023-08-24T11:06:24;100892.59;;;27.03;54.58
70229;BME280;57617;51.988;5.854;2023-08-24T11:09:08;100893.41;;;27.04;54.60
70229;BME280;57617;51.988;5.854;2023-08-24T11:11:40;100889.00;;;27.03;54.76
70229;BME280;57617;51.988;5.854;2023-08-24T11:14:16;100891.78;;;27.03;55.20
70229;BME280;57617;51.988;5.854;2023-08-24T11:16:45;100886.09;;;26.99;55.21
70229;BME280;57617;51.988;5.854;2023-08-24T11:19:12;100892.03;;;26.98;56.01
70229;BME280;57617;51.988;5.854;2023-08-24T11:21:44;100886.56;;;26.89;57.17
70229;BME280;57617;51.988;5.854;2023-08-24T11:24:12;100894.56;;;26.91;57.75
70229;BME280;57617;51.988;5.854;2023-08-24T11:26:43;100903.63;;;26.88;58.44
70229;BME280;57617;51.988;5.854;2023-08-24T11:29:08;100888.75;;;26.84;58.31
70229;BME280;57617;51.988;5.854;2023-08-24T11:31:35;100861.44;;;26.77;58.50
70229;BME280;57617;51.988;5.854;2023-08-24T11:34:01;100861.09;;;26.79;59.02
70229;BME280;57617;51.988;5.854;2023-08-24T11:36:28;100872.75;;;26.81;59.42
70229;BME280;57617;51.988;5.854;2023-08-24T11:38:56;100871.22;;;26.83;59.62
70229;BME280;57617;51.988;5.854;2023-08-24T11:41:22;100864.16;;;26.86;59.12
70229;BME280;57617;51.988;5.854;2023-08-24T11:43:48;100852.16;;;26.85;59.13
70229;BME280;57617;51.988;5.854;2023-08-24T11:46:16;100860.88;;;26.96;59.08
70229;BME280;57617;51.988;5.854;2023-08-24T11:48:42;100855.44;;;26.99;59.44
70229;BME280;57617;51.988;5.854;2023-08-24T11:51:11;100845.56;;;27.02;59.71
70229;BME280;57617;51.988;5.854;2023-08-24T11:53:39;100834.41;;;27.02;59.65
70229;BME280;57617;51.988;5.854;2023-08-24T11:56:04;100824.53;;;27.04;59.54
70229;BME280;57617;51.988;5.854;2023-08-24T11:58:31;100826.94;;;27.06;59.56
70229;BME280;57617;51.988;5.854;2023-08-24T12:00:56;100794.66;;;26.93;59.18
70229;BME280;57617;51.988;5.854;2023-08-24T12:03:22;100827.53;;;27.11;58.70
70229;BME280;57617;51.988;5.854;2023-08-24T12:05:47;100822.03;;;27.15;58.76
70229;BME280;57617;51.988;5.854;2023-08-24T12:08:12;100808.22;;;27.18;58.52
70229;BME280;57617;51.988;5.854;2023-08-24T12:10:44;100809.16;;;27.22;58.37
70229;BME280;57617;51.988;5.854;2023-08-24T12:13:12;100808.38;;;27.22;58.40
70229;BME280;57617;51.988;5.854;2023-08-24T12:15:37;100806.47;;;27.26;58.08
70229;BME280;57617;51.988;5.854;2023-08-24T12:20:33;100788.22;;;27.28;57.56
70229;BME280;57617;51.988;5.854;2023-08-24T12:22:59;100785.09;;;27.30;57.39
70229;BME280;57617;51.988;5.854;2023-08-24T12:25:25;100780.69;;;27.29;57.45
70229;BME280;57617;51.988;5.854;2023-08-24T12:27:51;100767.91;;;27.28;57.35
70229;BME280;57617;51.988;5.854;2023-08-24T12:30:18;100770.69;;;27.28;57.74
70229;BME280;57617;51.988;5.854;2023-08-24T12:32:48;100766.72;;;27.29;57.19
70229;BME280;57617;51.988;5.854;2023-08-24T12:35:15;100771.97;;;27.30;57.35
70229;BME280;57617;51.988;5.854;2023-08-24T12:37:41;100768.34;;;27.30;57.13
70229;BME280;57617;51.988;5.854;2023-08-24T12:40:07;100765.91;;;27.28;56.97
70229;BME280;57617;51.988;5.854;2023-08-24T12:42:33;100775.44;;;27.27;57.52
70229;BME280;57617;51.988;5.854;2023-08-24T12:44:59;100763.84;;;27.25;57.68
70229;BME280;57617;51.988;5.854;2023-08-24T12:47:24;100756.63;;;27.24;57.74
70229;BME280;57617;51.988;5.854;2023-08-24T12:49:50;100751.41;;;27.23;57.63
70229;BME280;57617;51.988;5.854;2023-08-24T12:52:17;100735.34;;;27.20;58.43
70229;BME280;57617;51.988;5.854;2023-08-24T12:54:43;100734.09;;;27.17;58.45
70229;BME280;57617;51.988;5.854;2023-08-24T12:57:08;100725.25;;;27.15;58.52